sensor_id;sensor_type;location;lat;lon;timestamp;P1;durP1;ratioP1;P2;durP2;ratioP2
54897;SDS011;40800;52.704;6.398;2022-11-13T00:00:40;26.80;;;24.50;;
54897;SDS011;40800;52.704;6.398;2022-11-13T00:03:05;26.17;;;23.88;;
54897;SDS011;40800;52.704;6.398;2022-11-13T00:05:31;26.08;;;23.77;;
54897;SDS011;40800;52.704;6.398;2022-11-13T00:07:56;25.75;;;23.48;;
54897;SDS011;40800;52.704;6.398;2022-11-13T00:10:22;27.55;;;25.15;;
54897;SDS011;40800;52.704;6.398;2022-11-13T00:12:47;25.38;;;22.98;;
54897;SDS011;40800;52.704;6.398;2022-11-13T00:15:13;24.77;;;22.48;;
54897;SDS011;40800;52.704;6.398;2022-11-13T00:17:39;24.67;;;22.58;;
54897;SDS011;40800;52.704;6.398;2022-11-13T00:20:04;26.33;;;24.02;;
54897;SDS011;40800;52.704;6.398;2022-11-13T00:22:30;27.35;;;25.15;;
54897;SDS011;40800;52.704;6.398;2022-11-13T00:24:56;28.50;;;25.90;;
54897;SDS011;40800;52.704;6.398;2022-11-13T00:27:21;25.85;;;23.65;;
54897;SDS011;40800;52.704;6.398;2022-11-13T00:29:47;24.98;;;22.75;;
54897;SDS011;40800;52.704;6.398;2022-11-13T00:32:12;26.48;;;24.13;;
54897;SDS011;40800;52.704;6.398;2022-11-13T00:34:38;28.20;;;25.73;;
54897;SDS011;40800;52.704;6.398;2022-11-13T00:37:04;27.08;;;24.77;;
54897;SDS011;40800;52.704;6.398;2022-11-13T00:39:29;27.80;;;25.40;;
54897;SDS011;40800;52.704;6.398;2022-11-13T00:41:55;28.90;;;26.23;;
54897;SDS011;40800;52.704;6.398;2022-11-13T00:44:20;28.27;;;25.67;;
54897;SDS011;40800;52.704;6.398;2022-11-13T00:46:46;28.42;;;25.83;;
54897;SDS011;40800;52.704;6.398;2022-11-13T00:49:11;28.52;;;26.13;;
54897;SDS011;40800;52.704;6.398;2022-11-13T00:51:37;26.73;;;24.27;;
54897;SDS011;40800;52.704;6.398;2022-11-13T00:54:03;28.23;;;25.50;;
54897;SDS011;40800;52.704;6.398;2022-11-13T00:56:28;27.42;;;25.02;;
54897;SDS011;40800;52.704;6.398;2022-11-13T00:58:54;28.05;;;25.65;;
54897;SDS011;40800;52.704;6.398;2022-11-13T01:01:20;27.10;;;24.75;;
54897;SDS011;40800;52.704;6.398;2022-11-13T01:03:45;26.90;;;24.50;;
54897;SDS011;40800;52.704;6.398;2022-11-13T01:06:21;25.63;;;23.52;;
54897;SDS011;40800;52.704;6.398;2022-11-13T01:08:49;25.48;;;23.33;;
54897;SDS011;40800;52.704;6.398;2022-11-13T01:11:19;25.40;;;23.20;;
54897;SDS011;40800;52.704;6.398;2022-11-13T01:13:47;25.17;;;22.83;;
54897;SDS011;40800;52.704;6.398;2022-11-13T01:16:14;27.00;;;24.52;;
54897;SDS011;40800;52.704;6.398;2022-11-13T01:21:08;24.85;;;22.85;;
54897;SDS011;40800;52.704;6.398;2022-11-13T01:23:35;26.15;;;23.85;;
54897;SDS011;40800;52.704;6.398;2022-11-13T01:28:33;27.75;;;25.27;;
54897;SDS011;40800;52.704;6.398;2022-11-13T01:30:59;27.58;;;25.17;;
54897;SDS011;40800;52.704;6.398;2022-11-13T01:33:28;28.08;;;25.65;;
54897;SDS011;40800;52.704;6.398;2022-11-13T01:35:58;30.35;;;27.33;;
54897;SDS011;40800;52.704;6.398;2022-11-13T01:38:28;28.80;;;26.15;;
54897;SDS011;40800;52.704;6.398;2022-11-13T01:40:54;29.08;;;26.45;;
54897;SDS011;40800;52.704;6.398;2022-11-13T01:48:33;28.95;;;26.15;;
54897;SDS011;40800;52.704;6.398;2022-11-13T01:51:11;29.00;;;26.38;;
54897;SDS011;40800;52.704;6.398;2022-11-13T01:53:40;28.77;;;26.17;;
54897;SDS011;40800;52.704;6.398;2022-11-13T01:56:08;28.27;;;25.75;;
54897;SDS011;40800;52.704;6.398;2022-11-13T01:58:34;28.85;;;25.98;;
54897;SDS011;40800;52.704;6.398;2022-11-13T02:01:01;29.48;;;26.77;;
54897;SDS011;40800;52.704;6.398;2022-11-13T02:03:27;28.73;;;26.15;;
54897;SDS011;40800;52.704;6.398;2022-11-13T02:05:52;28.55;;;25.90;;
54897;SDS011;40800;52.704;6.398;2022-11-13T02:08:18;28.73;;;26.23;;
54897;SDS011;40800;52.704;6.398;2022-11-13T02:10:44;28.63;;;26.00;;
54897;SDS011;40800;52.704;6.398;2022-11-13T02:13:11;28.25;;;25.73;;
54897;SDS011;40800;52.704;6.398;2022-11-13T02:15:38;27.10;;;24.50;;
54897;SDS011;40800;52.704;6.398;2022-11-13T02:20:49;28.45;;;25.75;;
54897;SDS011;40800;52.704;6.398;2022-11-13T02:23:49;27.42;;;24.65;;
54897;SDS011;40800;52.704;6.398;2022-11-13T02:26:36;27.30;;;24.70;;
54897;SDS011;40800;52.704;6.398;2022-11-13T02:29:02;26.63;;;24.42;;
54897;SDS011;40800;52.704;6.398;2022-11-13T02:31:28;27.05;;;24.65;;
54897;SDS011;40800;52.704;6.398;2022-11-13T02:33:53;27.38;;;25.02;;
54897;SDS011;40800;52.704;6.398;2022-11-13T02:36:20;26.63;;;24.20;;
54897;SDS011;40800;52.704;6.398;2022-11-13T02:38:48;25.10;;;23.00;;
54897;SDS011;40800;52.704;6.398;2022-11-13T02:41:15;26.73;;;24.40;;
54897;SDS011;40800;52.704;6.398;2022-11-13T02:43:41;26.52;;;24.10;;
54897;SDS011;40800;52.704;6.398;2022-11-13T02:46:07;26.15;;;23.83;;
54897;SDS011;40800;52.704;6.398;2022-11-13T02:48:32;26.50;;;24.08;;
54897;SDS011;40800;52.704;6.398;2022-11-13T02:50:58;27.17;;;24.77;;
54897;SDS011;40800;52.704;6.398;2022-11-13T02:53:24;26.80;;;24.30;;
54897;SDS011;40800;52.704;6.398;2022-11-13T02:55:49;26.48;;;24.10;;
54897;SDS011;40800;52.704;6.398;2022-11-13T02:58:15;26.77;;;24.30;;
54897;SDS011;40800;52.704;6.398;2022-11-13T03:00:41;27.33;;;24.75;;
54897;SDS011;40800;52.704;6.398;2022-11-13T03:03:06;27.23;;;24.73;;
54897;SDS011;40800;52.704;6.398;2022-11-13T03:05:32;26.23;;;23.95;;
54897;SDS011;40800;52.704;6.398;2022-11-13T03:07:57;27.23;;;24.52;;
54897;SDS011;40800;52.704;6.398;2022-11-13T03:10:23;27.70;;;25.20;;
54897;SDS011;40800;52.704;6.398;2022-11-13T03:12:48;27.27;;;24.75;;
54897;SDS011;40800;52.704;6.398;2022-11-13T03:15:14;27.80;;;25.10;;
54897;SDS011;40800;52.704;6.398;2022-11-13T03:17:40;27.33;;;24.83;;
54897;SDS011;40800;52.704;6.398;2022-11-13T03:20:05;27.45;;;24.98;;
54897;SDS011;40800;52.704;6.398;2022-11-13T03:22:31;27.27;;;24.90;;
54897;SDS011;40800;52.704;6.398;2022-11-13T03:24:57;27.45;;;25.02;;
54897;SDS011;40800;52.704;6.398;2022-11-13T03:27:23;27.77;;;25.17;;
54897;SDS011;40800;52.704;6.398;2022-11-13T03:29:48;26.95;;;24.50;;
54897;SDS011;40800;52.704;6.398;2022-11-13T03:32:14;27.80;;;25.20;;
54897;SDS011;40800;52.704;6.398;2022-11-13T03:34:40;26.85;;;24.23;;
54897;SDS011;40800;52.704;6.398;2022-11-13T03:37:06;26.48;;;24.25;;
54897;SDS011;40800;52.704;6.398;2022-11-13T03:39:31;27.90;;;25.30;;
54897;SDS011;40800;52.704;6.398;2022-11-13T03:41:57;26.98;;;24.40;;
54897;SDS011;40800;52.704;6.398;2022-11-13T03:44:22;26.33;;;24.02;;
54897;SDS011;40800;52.704;6.398;2022-11-13T03:46:48;27.00;;;24.50;;
54897;SDS011;40800;52.704;6.398;2022-11-13T03:49:14;26.38;;;24.05;;
54897;SDS011;40800;52.704;6.398;2022-11-13T03:51:39;25.98;;;23.70;;
54897;SDS011;40800;52.704;6.398;2022-11-13T03:54:05;27.17;;;24.73;;
54897;SDS011;40800;52.704;6.398;2022-11-13T03:56:30;25.83;;;23.52;;
54897;SDS011;40800;52.704;6.398;2022-11-13T03:58:56;27.75;;;25.05;;
54897;SDS011;40800;52.704;6.398;2022-11-13T04:01:22;27.88;;;25.38;;
54897;SDS011;40800;52.704;6.398;2022-11-13T04:03:48;26.88;;;24.50;;
54897;SDS011;40800;52.704;6.398;2022-11-13T04:06:13;27.23;;;24.80;;
54897;SDS011;40800;52.704;6.398;2022-11-13T04:08:39;27.50;;;25.10;;
54897;SDS011;40800;52.704;6.398;2022-11-13T04:11:05;26.85;;;24.45;;
54897;SDS011;40800;52.704;6.398;2022-11-13T04:13:31;27.70;;;24.95;;
54897;SDS011;40800;52.704;6.398;2022-11-13T04:15:57;27.63;;;25.10;;
54897;SDS011;40800;52.704;6.398;2022-11-13T04:18:22;26.85;;;24.27;;
54897;SDS011;40800;52.704;6.398;2022-11-13T04:20:48;25.85;;;23.63;;
54897;SDS011;40800;52.704;6.398;2022-11-13T04:23:14;27.33;;;24.90;;
54897;SDS011;40800;52.704;6.398;2022-11-13T04:25:41;26.90;;;24.48;;
54897;SDS011;40800;52.704;6.398;2022-11-13T04:28:08;26.15;;;23.95;;
54897;SDS011;40800;52.704;6.398;2022-11-13T04:30:34;25.65;;;23.38;;
54897;SDS011;40800;52.704;6.398;2022-11-13T04:33:00;26.83;;;24.52;;
54897;SDS011;40800;52.704;6.398;2022-11-13T04:35:25;27.98;;;25.38;;
54897;SDS011;40800;52.704;6.398;2022-11-13T04:37:51;26.48;;;24.05;;
54897;SDS011;40800;52.704;6.398;2022-11-13T04:40:17;26.70;;;24.30;;
54897;SDS011;40800;52.704;6.398;2022-11-13T04:42:42;26.70;;;24.40;;
54897;SDS011;40800;52.704;6.398;2022-11-13T04:45:18;26.70;;;24.30;;
54897;SDS011;40800;52.704;6.398;2022-11-13T04:47:45;26.25;;;24.05;;
54897;SDS011;40800;52.704;6.398;2022-11-13T04:50:11;26.90;;;24.48;;
54897;SDS011;40800;52.704;6.398;2022-11-13T04:52:38;27.05;;;24.77;;
54897;SDS011;40800;52.704;6.398;2022-11-13T04:55:04;26.65;;;24.25;;
54897;SDS011;40800;52.704;6.398;2022-11-13T04:57:30;28.33;;;25.60;;
54897;SDS011;40800;52.704;6.398;2022-11-13T04:59:56;27.50;;;25.00;;
54897;SDS011;40800;52.704;6.398;2022-11-13T05:02:21;27.13;;;24.77;;
54897;SDS011;40800;52.704;6.398;2022-11-13T05:04:47;26.80;;;24.60;;
54897;SDS011;40800;52.704;6.398;2022-11-13T05:07:13;26.92;;;24.42;;
54897;SDS011;40800;52.704;6.398;2022-11-13T05:09:38;26.15;;;23.85;;
54897;SDS011;40800;52.704;6.398;2022-11-13T05:12:04;26.92;;;24.55;;
54897;SDS011;40800;52.704;6.398;2022-11-13T05:14:33;26.02;;;23.83;;
54897;SDS011;40800;52.704;6.398;2022-11-13T05:17:00;25.73;;;23.52;;
54897;SDS011;40800;52.704;6.398;2022-11-13T05:19:26;25.05;;;22.92;;
54897;SDS011;40800;52.704;6.398;2022-11-13T05:21:51;24.73;;;22.63;;
54897;SDS011;40800;52.704;6.398;2022-11-13T05:24:17;24.98;;;22.77;;
54897;SDS011;40800;52.704;6.398;2022-11-13T05:26:42;26.00;;;23.70;;
54897;SDS011;40800;52.704;6.398;2022-11-13T05:29:08;25.17;;;23.08;;
54897;SDS011;40800;52.704;6.398;2022-11-13T05:31:34;27.00;;;24.60;;
54897;SDS011;40800;52.704;6.398;2022-11-13T05:34:01;26.08;;;23.83;;
54897;SDS011;40800;52.704;6.398;2022-11-13T05:36:28;27.02;;;24.65;;
54897;SDS011;40800;52.704;6.398;2022-11-13T05:38:53;25.77;;;23.58;;
54897;SDS011;40800;52.704;6.398;2022-11-13T05:41:19;27.02;;;24.63;;
54897;SDS011;40800;52.704;6.398;2022-11-13T05:43:46;26.08;;;23.88;;
54897;SDS011;40800;52.704;6.398;2022-11-13T05:48:42;26.08;;;23.40;;
54897;SDS011;40800;52.704;6.398;2022-11-13T05:51:09;26.27;;;23.95;;
54897;SDS011;40800;52.704;6.398;2022-11-13T05:53:37;26.67;;;24.42;;
54897;SDS011;40800;52.704;6.398;2022-11-13T05:56:04;26.30;;;23.88;;
54897;SDS011;40800;52.704;6.398;2022-11-13T05:58:35;26.50;;;24.15;;
54897;SDS011;40800;52.704;6.398;2022-11-13T06:01:12;26.95;;;24.35;;
54897;SDS011;40800;52.704;6.398;2022-11-13T06:03:43;26.85;;;24.45;;
54897;SDS011;40800;52.704;6.398;2022-11-13T06:06:10;27.05;;;24.65;;
54897;SDS011;40800;52.704;6.398;2022-11-13T06:08:38;26.38;;;24.05;;
54897;SDS011;40800;52.704;6.398;2022-11-13T06:11:05;27.25;;;24.85;;
54897;SDS011;40800;52.704;6.398;2022-11-13T06:13:32;27.65;;;25.17;;
54897;SDS011;40800;52.704;6.398;2022-11-13T06:16:01;26.17;;;24.00;;
54897;SDS011;40800;52.704;6.398;2022-11-13T06:18:32;27.80;;;25.35;;
54897;SDS011;40800;52.704;6.398;2022-11-13T06:21:01;26.60;;;24.25;;
54897;SDS011;40800;52.704;6.398;2022-11-13T06:23:28;26.90;;;24.50;;
54897;SDS011;40800;52.704;6.398;2022-11-13T06:26:00;25.00;;;22.90;;
54897;SDS011;40800;52.704;6.398;2022-11-13T06:28:34;25.42;;;23.23;;
54897;SDS011;40800;52.704;6.398;2022-11-13T06:31:07;25.15;;;23.00;;
54897;SDS011;40800;52.704;6.398;2022-11-13T06:33:38;25.63;;;23.42;;
54897;SDS011;40800;52.704;6.398;2022-11-13T06:36:07;25.67;;;23.48;;
54897;SDS011;40800;52.704;6.398;2022-11-13T06:38:38;24.15;;;22.08;;
54897;SDS011;40800;52.704;6.398;2022-11-13T06:41:05;21.38;;;19.60;;
54897;SDS011;40800;52.704;6.398;2022-11-13T06:43:32;21.70;;;19.83;;
54897;SDS011;40800;52.704;6.398;2022-11-13T06:45:57;21.42;;;19.75;;
54897;SDS011;40800;52.704;6.398;2022-11-13T06:48:27;22.40;;;20.50;;
54897;SDS011;40800;52.704;6.398;2022-11-13T06:50:52;23.35;;;20.42;;
54897;SDS011;40800;52.704;6.398;2022-11-13T06:53:18;23.67;;;21.40;;
54897;SDS011;40800;52.704;6.398;2022-11-13T06:55:44;22.85;;;20.85;;
54897;SDS011;40800;52.704;6.398;2022-11-13T06:58:12;23.58;;;21.38;;
54897;SDS011;40800;52.704;6.398;2022-11-13T07:00:38;23.02;;;21.02;;
54897;SDS011;40800;52.704;6.398;2022-11-13T07:05:30;22.27;;;20.48;;
54897;SDS011;40800;52.704;6.398;2022-11-13T07:07:56;24.42;;;22.13;;
54897;SDS011;40800;52.704;6.398;2022-11-13T07:10:22;25.75;;;23.45;;
54897;SDS011;40800;52.704;6.398;2022-11-13T07:12:47;25.85;;;23.45;;
54897;SDS011;40800;52.704;6.398;2022-11-13T07:15:13;25.73;;;23.38;;
54897;SDS011;40800;52.704;6.398;2022-11-13T07:17:40;23.90;;;22.00;;
54897;SDS011;40800;52.704;6.398;2022-11-13T07:20:06;24.00;;;21.77;;
54897;SDS011;40800;52.704;6.398;2022-11-13T07:22:32;24.87;;;22.70;;
54897;SDS011;40800;52.704;6.398;2022-11-13T07:24:57;25.30;;;23.20;;
54897;SDS011;40800;52.704;6.398;2022-11-13T07:27:23;26.70;;;24.35;;
54897;SDS011;40800;52.704;6.398;2022-11-13T07:29:49;26.35;;;24.05;;
54897;SDS011;40800;52.704;6.398;2022-11-13T07:32:14;27.25;;;24.75;;
54897;SDS011;40800;52.704;6.398;2022-11-13T07:34:40;26.83;;;24.40;;
54897;SDS011;40800;52.704;6.398;2022-11-13T07:37:05;28.55;;;25.85;;
54897;SDS011;40800;52.704;6.398;2022-11-13T07:39:31;28.00;;;25.27;;
54897;SDS011;40800;52.704;6.398;2022-11-13T07:41:57;28.70;;;26.10;;
54897;SDS011;40800;52.704;6.398;2022-11-13T07:44:23;28.58;;;26.08;;
54897;SDS011;40800;52.704;6.398;2022-11-13T07:46:48;28.88;;;26.25;;
54897;SDS011;40800;52.704;6.398;2022-11-13T07:49:14;29.73;;;26.77;;
54897;SDS011;40800;52.704;6.398;2022-11-13T07:51:39;29.33;;;26.73;;
54897;SDS011;40800;52.704;6.398;2022-11-13T07:54:05;29.27;;;26.75;;
54897;SDS011;40800;52.704;6.398;2022-11-13T07:56:30;28.50;;;26.00;;
54897;SDS011;40800;52.704;6.398;2022-11-13T07:58:56;29.08;;;26.38;;
54897;SDS011;40800;52.704;6.398;2022-11-13T08:01:22;27.88;;;25.35;;
54897;SDS011;40800;52.704;6.398;2022-11-13T08:03:47;27.63;;;25.15;;
54897;SDS011;40800;52.704;6.398;2022-11-13T08:06:13;27.40;;;25.15;;
54897;SDS011;40800;52.704;6.398;2022-11-13T08:08:38;27.50;;;24.95;;
54897;SDS011;40800;52.704;6.398;2022-11-13T08:11:05;26.67;;;24.33;;
54897;SDS011;40800;52.704;6.398;2022-11-13T08:13:32;26.73;;;24.38;;
54897;SDS011;40800;52.704;6.398;2022-11-13T08:15:59;27.30;;;24.80;;
54897;SDS011;40800;52.704;6.398;2022-11-13T08:18:29;26.85;;;24.50;;
54897;SDS011;40800;52.704;6.398;2022-11-13T08:20:56;26.25;;;24.05;;
54897;SDS011;40800;52.704;6.398;2022-11-13T08:23:24;26.00;;;23.80;;
54897;SDS011;40800;52.704;6.398;2022-11-13T08:25:50;26.25;;;24.00;;
54897;SDS011;40800;52.704;6.398;2022-11-13T08:28:15;26.45;;;24.15;;
54897;SDS011;40800;52.704;6.398;2022-11-13T08:30:44;25.85;;;23.52;;
54897;SDS011;40800;52.704;6.398;2022-11-13T08:33:09;25.48;;;23.38;;
54897;SDS011;40800;52.704;6.398;2022-11-13T08:35:35;25.17;;;22.98;;
54897;SDS011;40800;52.704;6.398;2022-11-13T08:38:04;25.42;;;23.17;;
54897;SDS011;40800;52.704;6.398;2022-11-13T08:40:33;25.10;;;22.92;;
54897;SDS011;40800;52.704;6.398;2022-11-13T08:43:00;25.13;;;23.02;;
54897;SDS011;40800;52.704;6.398;2022-11-13T08:45:28;24.13;;;22.15;;
54897;SDS011;40800;52.704;6.398;2022-11-13T08:48:00;24.48;;;22.38;;
54897;SDS011;40800;52.704;6.398;2022-11-13T08:50:27;24.65;;;22.48;;
54897;SDS011;40800;52.704;6.398;2022-11-13T08:52:54;24.95;;;22.85;;
54897;SDS011;40800;52.704;6.398;2022-11-13T08:55:20;24.50;;;22.40;;
54897;SDS011;40800;52.704;6.398;2022-11-13T08:57:46;25.00;;;22.88;;
54897;SDS011;40800;52.704;6.398;2022-11-13T09:00:12;24.45;;;22.45;;
54897;SDS011;40800;52.704;6.398;2022-11-13T09:02:38;24.38;;;22.38;;
54897;SDS011;40800;52.704;6.398;2022-11-13T09:05:03;23.80;;;21.88;;
54897;SDS011;40800;52.704;6.398;2022-11-13T09:07:29;24.40;;;22.15;;
54897;SDS011;40800;52.704;6.398;2022-11-13T09:09:55;23.58;;;21.48;;
54897;SDS011;40800;52.704;6.398;2022-11-13T09:12:21;23.38;;;21.48;;
54897;SDS011;40800;52.704;6.398;2022-11-13T09:14:46;23.38;;;21.52;;
54897;SDS011;40800;52.704;6.398;2022-11-13T09:17:12;21.65;;;19.85;;
54897;SDS011;40800;52.704;6.398;2022-11-13T09:19:37;21.60;;;19.80;;
54897;SDS011;40800;52.704;6.398;2022-11-13T09:22:03;21.33;;;19.63;;
54897;SDS011;40800;52.704;6.398;2022-11-13T09:24:28;21.25;;;19.42;;
54897;SDS011;40800;52.704;6.398;2022-11-13T09:26:54;20.15;;;18.55;;
54897;SDS011;40800;52.704;6.398;2022-11-13T09:29:20;20.02;;;18.42;;
54897;SDS011;40800;52.704;6.398;2022-11-13T09:31:47;19.85;;;18.25;;
54897;SDS011;40800;52.704;6.398;2022-11-13T09:34:13;20.13;;;18.50;;
54897;SDS011;40800;52.704;6.398;2022-11-13T09:36:39;20.27;;;18.58;;
54897;SDS011;40800;52.704;6.398;2022-11-13T09:39:04;20.88;;;19.08;;
54897;SDS011;40800;52.704;6.398;2022-11-13T09:41:32;20.20;;;18.50;;
54897;SDS011;40800;52.704;6.398;2022-11-13T09:44:02;19.17;;;17.58;;
54897;SDS011;40800;52.704;6.398;2022-11-13T09:49:29;19.25;;;17.73;;
54897;SDS011;40800;52.704;6.398;2022-11-13T09:54:41;18.23;;;16.73;;
54897;SDS011;40800;52.704;6.398;2022-11-13T10:08:00;17.88;;;16.35;;
54897;SDS011;40800;52.704;6.398;2022-11-13T10:13:38;18.13;;;16.63;;
54897;SDS011;40800;52.704;6.398;2022-11-13T10:22:04;16.67;;;15.38;;
54897;SDS011;40800;52.704;6.398;2022-11-13T10:24:51;16.23;;;14.93;;
54897;SDS011;40800;52.704;6.398;2022-11-13T10:27:22;15.63;;;14.43;;
54897;SDS011;40800;52.704;6.398;2022-11-13T10:29:48;16.63;;;15.32;;
54897;SDS011;40800;52.704;6.398;2022-11-13T10:34:58;13.02;;;11.93;;
54897;SDS011;40800;52.704;6.398;2022-11-13T10:40:23;13.20;;;12.00;;
54897;SDS011;40800;52.704;6.398;2022-11-13T10:42:53;13.05;;;11.88;;
54897;SDS011;40800;52.704;6.398;2022-11-13T10:45:19;11.77;;;10.73;;
54897;SDS011;40800;52.704;6.398;2022-11-13T10:47:47;10.80;;;9.90;;
54897;SDS011;40800;52.704;6.398;2022-11-13T10:52:46;9.98;;;8.43;;
54897;SDS011;40800;52.704;6.398;2022-11-13T10:55:20;8.43;;;7.55;;
54897;SDS011;40800;52.704;6.398;2022-11-13T10:57:53;8.80;;;7.90;;
54897;SDS011;40800;52.704;6.398;2022-11-13T11:02:49;8.48;;;7.63;;
54897;SDS011;40800;52.704;6.398;2022-11-13T11:05:19;9.18;;;8.27;;
54897;SDS011;40800;52.704;6.398;2022-11-13T11:07:46;9.10;;;8.10;;
54897;SDS011;40800;52.704;6.398;2022-11-13T11:10:26;9.23;;;8.32;;
54897;SDS011;40800;52.704;6.398;2022-11-13T11:13:20;10.70;;;8.68;;
54897;SDS011;40800;52.704;6.398;2022-11-13T11:20:51;9.15;;;7.85;;
54897;SDS011;40800;52.704;6.398;2022-11-13T11:23:26;9.60;;;8.05;;
54897;SDS011;40800;52.704;6.398;2022-11-13T11:34:15;11.68;;;7.78;;
54897;SDS011;40800;52.704;6.398;2022-11-13T11:47:54;10.27;;;7.97;;
54897;SDS011;40800;52.704;6.398;2022-11-13T11:50:33;8.27;;;7.18;;
54897;SDS011;40800;52.704;6.398;2022-11-13T11:55:56;8.80;;;7.55;;
54897;SDS011;40800;52.704;6.398;2022-11-13T12:01:19;8.07;;;7.28;;
54897;SDS011;40800;52.704;6.398;2022-11-13T12:09:42;8.50;;;7.20;;
54897;SDS011;40800;52.704;6.398;2022-11-13T12:12:04;7.60;;;6.85;;
54897;SDS011;40800;52.704;6.398;2022-11-13T12:14:50;8.40;;;7.47;;
54897;SDS011;40800;52.704;6.398;2022-11-13T12:25:37;7.68;;;6.90;;
54897;SDS011;40800;52.704;6.398;2022-11-13T12:30:46;7.53;;;6.78;;
54897;SDS011;40800;52.704;6.398;2022-11-13T12:36:12;7.60;;;6.82;;
54897;SDS011;40800;52.704;6.398;2022-11-13T12:38:44;6.80;;;6.10;;
54897;SDS011;40800;52.704;6.398;2022-11-13T12:41:38;7.95;;;6.47;;
54897;SDS011;40800;52.704;6.398;2022-11-13T12:44:23;8.35;;;6.75;;
54897;SDS011;40800;52.704;6.398;2022-11-13T12:46:50;7.55;;;6.50;;
54897;SDS011;40800;52.704;6.398;2022-11-13T12:49:31;7.30;;;6.38;;
54897;SDS011;40800;52.704;6.398;2022-11-13T12:51:58;7.20;;;6.50;;
54897;SDS011;40800;52.704;6.398;2022-11-13T12:54:30;8.30;;;6.75;;
54897;SDS011;40800;52.704;6.398;2022-11-13T12:57:15;8.00;;;6.15;;
54897;SDS011;40800;52.704;6.398;2022-11-13T12:59:56;7.68;;;6.45;;
54897;SDS011;40800;52.704;6.398;2022-11-13T13:05:34;7.10;;;6.32;;
54897;SDS011;40800;52.704;6.398;2022-11-13T13:11:35;7.10;;;6.40;;
54897;SDS011;40800;52.704;6.398;2022-11-13T13:14:24;6.82;;;6.13;;
54897;SDS011;40800;52.704;6.398;2022-11-13T13:19:37;7.90;;;6.10;;
54897;SDS011;40800;52.704;6.398;2022-11-13T13:22:07;7.63;;;5.97;;
54897;SDS011;40800;52.704;6.398;2022-11-13T13:25:02;7.05;;;6.35;;
54897;SDS011;40800;52.704;6.398;2022-11-13T13:27:54;7.10;;;6.13;;
54897;SDS011;40800;52.704;6.398;2022-11-13T13:30:25;7.55;;;6.15;;
54897;SDS011;40800;52.704;6.398;2022-11-13T13:32:58;7.03;;;5.88;;
54897;SDS011;40800;52.704;6.398;2022-11-13T13:35:47;8.25;;;6.20;;
54897;SDS011;40800;52.704;6.398;2022-11-13T13:38:29;6.18;;;5.50;;
54897;SDS011;40800;52.704;6.398;2022-11-13T13:47:10;6.53;;;5.35;;
54897;SDS011;40800;52.704;6.398;2022-11-13T13:50:03;6.13;;;5.22;;
54897;SDS011;40800;52.704;6.398;2022-11-13T13:52:32;5.43;;;4.65;;
54897;SDS011;40800;52.704;6.398;2022-11-13T13:55:03;7.15;;;5.65;;
54897;SDS011;40800;52.704;6.398;2022-11-13T13:57:31;5.78;;;5.18;;
54897;SDS011;40800;52.704;6.398;2022-11-13T13:59:58;7.60;;;5.07;;
54897;SDS011;40800;52.704;6.398;2022-11-13T14:02:24;5.88;;;4.95;;
54897;SDS011;40800;52.704;6.398;2022-11-13T14:04:53;6.20;;;5.40;;
54897;SDS011;40800;52.704;6.398;2022-11-13T14:10:02;5.78;;;4.97;;
54897;SDS011;40800;52.704;6.398;2022-11-13T14:12:42;5.53;;;4.93;;
54897;SDS011;40800;52.704;6.398;2022-11-13T14:15:17;7.88;;;4.80;;
54897;SDS011;40800;52.704;6.398;2022-11-13T14:17:48;6.97;;;4.90;;
54897;SDS011;40800;52.704;6.398;2022-11-13T14:20:14;5.95;;;4.35;;
54897;SDS011;40800;52.704;6.398;2022-11-13T14:22:41;6.03;;;5.07;;
54897;SDS011;40800;52.704;6.398;2022-11-13T14:25:15;5.47;;;4.57;;
54897;SDS011;40800;52.704;6.398;2022-11-13T14:27:46;5.63;;;4.65;;
54897;SDS011;40800;52.704;6.398;2022-11-13T14:30:24;6.03;;;4.80;;
54897;SDS011;40800;52.704;6.398;2022-11-13T14:32:52;6.88;;;4.40;;
54897;SDS011;40800;52.704;6.398;2022-11-13T14:35:19;4.78;;;4.05;;
54897;SDS011;40800;52.704;6.398;2022-11-13T14:37:47;4.85;;;4.20;;
54897;SDS011;40800;52.704;6.398;2022-11-13T14:40:28;5.20;;;4.53;;
54897;SDS011;40800;52.704;6.398;2022-11-13T14:42:57;5.88;;;4.35;;
54897;SDS011;40800;52.704;6.398;2022-11-13T14:45:26;5.82;;;4.40;;
54897;SDS011;40800;52.704;6.398;2022-11-13T14:47:57;4.60;;;4.13;;
54897;SDS011;40800;52.704;6.398;2022-11-13T14:50:27;5.38;;;4.30;;
54897;SDS011;40800;52.704;6.398;2022-11-13T14:53:04;5.35;;;4.40;;
54897;SDS011;40800;52.704;6.398;2022-11-13T14:55:33;5.85;;;4.10;;
54897;SDS011;40800;52.704;6.398;2022-11-13T14:58:02;6.22;;;4.15;;
54897;SDS011;40800;52.704;6.398;2022-11-13T15:00:29;4.70;;;4.10;;
54897;SDS011;40800;52.704;6.398;2022-11-13T15:02:57;8.68;;;4.45;;
54897;SDS011;40800;52.704;6.398;2022-11-13T15:05:24;13.80;;;5.10;;
54897;SDS011;40800;52.704;6.398;2022-11-13T15:07:49;9.70;;;4.25;;
54897;SDS011;40800;52.704;6.398;2022-11-13T15:10:17;5.03;;;3.97;;
54897;SDS011;40800;52.704;6.398;2022-11-13T15:12:44;5.82;;;4.10;;
54897;SDS011;40800;52.704;6.398;2022-11-13T15:15:13;5.43;;;4.20;;
54897;SDS011;40800;52.704;6.398;2022-11-13T15:17:44;5.30;;;3.90;;
54897;SDS011;40800;52.704;6.398;2022-11-13T15:20:21;5.43;;;4.07;;
54897;SDS011;40800;52.704;6.398;2022-11-13T15:22:49;5.00;;;3.90;;
54897;SDS011;40800;52.704;6.398;2022-11-13T15:27:43;5.22;;;3.95;;
54897;SDS011;40800;52.704;6.398;2022-11-13T15:30:09;5.93;;;4.03;;
54897;SDS011;40800;52.704;6.398;2022-11-13T15:32:35;5.30;;;4.32;;
54897;SDS011;40800;52.704;6.398;2022-11-13T15:35:01;5.82;;;4.10;;
54897;SDS011;40800;52.704;6.398;2022-11-13T15:37:28;5.15;;;3.97;;
54897;SDS011;40800;52.704;6.398;2022-11-13T15:39:53;6.05;;;4.35;;
54897;SDS011;40800;52.704;6.398;2022-11-13T15:42:23;5.40;;;3.97;;
54897;SDS011;40800;52.704;6.398;2022-11-13T15:44:52;6.85;;;4.03;;
54897;SDS011;40800;52.704;6.398;2022-11-13T15:47:25;6.15;;;4.28;;
54897;SDS011;40800;52.704;6.398;2022-11-13T15:49:50;5.10;;;4.18;;
54897;SDS011;40800;52.704;6.398;2022-11-13T15:52:16;5.28;;;4.38;;
54897;SDS011;40800;52.704;6.398;2022-11-13T15:54:42;5.95;;;4.50;;
54897;SDS011;40800;52.704;6.398;2022-11-13T15:57:12;6.13;;;4.82;;
54897;SDS011;40800;52.704;6.398;2022-11-13T15:59:43;6.50;;;4.55;;
54897;SDS011;40800;52.704;6.398;2022-11-13T16:02:09;6.63;;;4.63;;
54897;SDS011;40800;52.704;6.398;2022-11-13T16:04:34;7.05;;;5.22;;
54897;SDS011;40800;52.704;6.398;2022-11-13T16:07:03;6.85;;;5.18;;
54897;SDS011;40800;52.704;6.398;2022-11-13T16:09:29;6.85;;;5.25;;
54897;SDS011;40800;52.704;6.398;2022-11-13T16:11:54;6.97;;;5.50;;
54897;SDS011;40800;52.704;6.398;2022-11-13T16:14:20;6.18;;;5.00;;
54897;SDS011;40800;52.704;6.398;2022-11-13T16:16:46;7.05;;;5.47;;
54897;SDS011;40800;52.704;6.398;2022-11-13T16:19:14;8.43;;;6.40;;
54897;SDS011;40800;52.704;6.398;2022-11-13T16:21:46;10.48;;;5.88;;
54897;SDS011;40800;52.704;6.398;2022-11-13T16:24:11;17.85;;;6.95;;
54897;SDS011;40800;52.704;6.398;2022-11-13T16:26:37;16.25;;;6.05;;
54897;SDS011;40800;52.704;6.398;2022-11-13T16:31:38;10.02;;;6.35;;
54897;SDS011;40800;52.704;6.398;2022-11-13T16:34:03;8.57;;;6.65;;
54897;SDS011;40800;52.704;6.398;2022-11-13T16:36:30;9.00;;;6.43;;
54897;SDS011;40800;52.704;6.398;2022-11-13T16:38:55;7.57;;;6.70;;
54897;SDS011;40800;52.704;6.398;2022-11-13T16:41:21;8.82;;;7.03;;